sensor_id;sensor_type;location;lat;lon;timestamp;temperature;humidity
8172;DHT22;4127;47.908;10.850;2023-12-29T00:01:49;6.70;99.90
8172;DHT22;4127;47.908;10.850;2023-12-29T00:04:16;6.70;99.90
8172;DHT22;4127;47.908;10.850;2023-12-29T00:06:43;6.60;99.90
8172;DHT22;4127;47.908;10.850;2023-12-29T00:09:23;6.70;99.90
8172;DHT22;4127;47.908;10.850;2023-12-29T00:11:51;6.70;99.90
8172;DHT22;4127;47.908;10.850;2023-12-29T00:14:17;6.70;99.90
8172;DHT22;4127;47.908;10.850;2023-12-29T00:16:44;6.70;99.90
8172;DHT22;4127;47.908;10.850;2023-12-29T00:19:12;6.60;99.90
8172;DHT22;4127;47.908;10.850;2023-12-29T00:21:39;6.50;99.90
8172;DHT22;4127;47.908;10.850;2023-12-29T00:24:06;6.50;99.90
8172;DHT22;4127;47.908;10.850;2023-12-29T00:26:33;6.50;99.90
8172;DHT22;4127;47.908;10.850;2023-12-29T00:29:00;6.50;99.90
8172;DHT22;4127;47.908;10.850;2023-12-29T00:31:27;6.50;99.90
8172;DHT22;4127;47.908;10.850;2023-12-29T00:33:54;6.50;99.90
8172;DHT22;4127;47.908;10.850;2023-12-29T00:36:21;6.50;99.90
8172;DHT22;4127;47.908;10.850;2023-12-29T00:38:48;6.50;99.90
8172;DHT22;4127;47.908;10.850;2023-12-29T00:41:15;6.50;99.90
8172;DHT22;4127;47.908;10.850;2023-12-29T00:43:42;6.50;99.90
8172;DHT22;4127;47.908;10.850;2023-12-29T00:46:09;6.60;99.90
8172;DHT22;4127;47.908;10.850;2023-12-29T00:48:36;6.50;99.90
8172;DHT22;4127;47.908;10.850;2023-12-29T00:51:03;6.50;99.90
8172;DHT22;4127;47.908;10.850;2023-12-29T00:53:31;6.50;99.90
8172;DHT22;4127;47.908;10.850;2023-12-29T00:56:00;6.50;99.90
8172;DHT22;4127;47.908;10.850;2023-12-29T00:58:27;6.50;99.90
8172;DHT22;4127;47.908;10.850;2023-12-29T01:00:55;6.50;99.90
8172;DHT22;4127;47.908;10.850;2023-12-29T01:03:22;6.50;99.90
8172;DHT22;4127;47.908;10.850;2023-12-29T01:05:52;6.60;99.90
8172;DHT22;4127;47.908;10.850;2023-12-29T01:08:19;6.60;99.90
8172;DHT22;4127;47.908;10.850;2023-12-29T01:10:46;6.60;99.90
8172;DHT22;4127;47.908;10.850;2023-12-29T01:13:13;6.60;99.90
8172;DHT22;4127;47.908;10.850;2023-12-29T01:15:40;6.60;99.90
8172;DHT22;4127;47.908;10.850;2023-12-29T01:18:11;6.60;99.90
8172;DHT22;4127;47.908;10.850;2023-12-29T01:20:38;6.60;99.90
8172;DHT22;4127;47.908;10.850;2023-12-29T01:23:06;6.60;99.90
8172;DHT22;4127;47.908;10.850;2023-12-29T01:25:33;6.60;99.90
8172;DHT22;4127;47.908;10.850;2023-12-29T01:28:00;6.60;99.90
8172;DHT22;4127;47.908;10.850;2023-12-29T01:30:27;6.70;99.90
8172;DHT22;4127;47.908;10.850;2023-12-29T01:32:54;6.70;99.90
8172;DHT22;4127;47.908;10.850;2023-12-29T01:35:20;6.80;99.90
8172;DHT22;4127;47.908;10.850;2023-12-29T01:37:47;6.90;99.90
8172;DHT22;4127;47.908;10.850;2023-12-29T01:40:14;6.90;99.90
8172;DHT22;4127;47.908;10.850;2023-12-29T01:42:42;7.00;99.90
8172;DHT22;4127;47.908;10.850;2023-12-29T01:45:21;7.00;99.90
8172;DHT22;4127;47.908;10.850;2023-12-29T01:47:49;7.10;99.90
8172;DHT22;4127;47.908;10.850;2023-12-29T01:50:21;7.00;99.90
8172;DHT22;4127;47.908;10.850;2023-12-29T01:52:49;6.90;99.90
8172;DHT22;4127;47.908;10.850;2023-12-29T01:55:19;6.90;99.90
8172;DHT22;4127;47.908;10.850;2023-12-29T01:57:48;6.80;99.90
8172;DHT22;4127;47.908;10.850;2023-12-29T02:00:17;6.80;99.90
8172;DHT22;4127;47.908;10.850;2023-12-29T02:02:46;6.80;99.90
8172;DHT22;4127;47.908;10.850;2023-12-29T02:05:14;6.80;99.90
8172;DHT22;4127;47.908;10.850;2023-12-29T02:07:43;6.90;99.90
8172;DHT22;4127;47.908;10.850;2023-12-29T02:10:10;7.10;99.90
8172;DHT22;4127;47.908;10.850;2023-12-29T02:12:41;7.10;99.90
8172;DHT22;4127;47.908;10.850;2023-12-29T02:15:09;7.10;99.90
8172;DHT22;4127;47.908;10.850;2023-12-29T02:17:46;7.10;99.90
8172;DHT22;4127;47.908;10.850;2023-12-29T02:20:14;7.10;99.90
8172;DHT22;4127;47.908;10.850;2023-12-29T02:22:42;7.10;99.90
8172;DHT22;4127;47.908;10.850;2023-12-29T02:25:09;7.10;99.90
8172;DHT22;4127;47.908;10.850;2023-12-29T02:27:51;7.10;99.90
8172;DHT22;4127;47.908;10.850;2023-12-29T02:33:01;7.10;99.90
8172;DHT22;4127;47.908;10.850;2023-12-29T02:35:34;7.10;99.80
8172;DHT22;4127;47.908;10.850;2023-12-29T02:38:02;7.10;99.70
8172;DHT22;4127;47.908;10.850;2023-12-29T02:40:29;7.10;99.40
8172;DHT22;4127;47.908;10.850;2023-12-29T02:42:56;7.10;99.30
8172;DHT22;4127;47.908;10.850;2023-12-29T02:45:23;7.10;99.20
8172;DHT22;4127;47.908;10.850;2023-12-29T02:47:51;7.10;99.10
8172;DHT22;4127;47.908;10.850;2023-12-29T02:50:18;7.10;99.20
8172;DHT22;4127;47.908;10.850;2023-12-29T02:52:45;7.10;99.30
8172;DHT22;4127;47.908;10.850;2023-12-29T02:55:12;7.10;98.90
8172;DHT22;4127;47.908;10.850;2023-12-29T02:57:39;7.20;98.90
8172;DHT22;4127;47.908;10.850;2023-12-29T03:00:06;7.20;98.80
8172;DHT22;4127;47.908;10.850;2023-12-29T03:02:33;7.30;98.60
8172;DHT22;4127;47.908;10.850;2023-12-29T03:05:00;7.30;98.70
8172;DHT22;4127;47.908;10.850;2023-12-29T03:07:27;7.20;98.50
8172;DHT22;4127;47.908;10.850;2023-12-29T03:09:54;7.30;98.40
8172;DHT22;4127;47.908;10.850;2023-12-29T03:12:22;7.20;98.40
8172;DHT22;4127;47.908;10.850;2023-12-29T03:14:49;7.20;98.40
8172;DHT22;4127;47.908;10.850;2023-12-29T03:17:16;7.20;98.20
8172;DHT22;4127;47.908;10.850;2023-12-29T03:19:43;7.20;98.30
8172;DHT22;4127;47.908;10.850;2023-12-29T03:22:10;7.20;98.30
8172;DHT22;4127;47.908;10.850;2023-12-29T03:24:40;7.10;98.20
8172;DHT22;4127;47.908;10.850;2023-12-29T03:27:09;7.10;98.10
8172;DHT22;4127;47.908;10.850;2023-12-29T03:29:36;7.10;98.50
8172;DHT22;4127;47.908;10.850;2023-12-29T03:32:03;7.10;98.20
8172;DHT22;4127;47.908;10.850;2023-12-29T03:34:30;7.10;98.20
8172;DHT22;4127;47.908;10.850;2023-12-29T03:36:57;7.20;98.00
8172;DHT22;4127;47.908;10.850;2023-12-29T03:39:25;7.20;97.90
8172;DHT22;4127;47.908;10.850;2023-12-29T03:41:51;7.20;97.90
8172;DHT22;4127;47.908;10.850;2023-12-29T03:44:18;7.20;97.80
8172;DHT22;4127;47.908;10.850;2023-12-29T03:46:45;7.30;98.00
8172;DHT22;4127;47.908;10.850;2023-12-29T03:49:12;7.30;98.20
8172;DHT22;4127;47.908;10.850;2023-12-29T03:51:39;7.40;98.30
8172;DHT22;4127;47.908;10.850;2023-12-29T03:54:06;7.50;98.30
8172;DHT22;4127;47.908;10.850;2023-12-29T03:56:33;7.60;98.30
8172;DHT22;4127;47.908;10.850;2023-12-29T03:59:00;7.60;98.40
8172;DHT22;4127;47.908;10.850;2023-12-29T04:01:27;7.70;98.40
8172;DHT22;4127;47.908;10.850;2023-12-29T04:03:55;7.70;98.40
8172;DHT22;4127;47.908;10.850;2023-12-29T04:06:22;7.80;98.40
8172;DHT22;4127;47.908;10.850;2023-12-29T04:08:49;7.80;98.60
8172;DHT22;4127;47.908;10.850;2023-12-29T04:11:16;7.70;98.70
8172;DHT22;4127;47.908;10.850;2023-12-29T04:13:43;7.70;98.70
8172;DHT22;4127;47.908;10.850;2023-12-29T04:16:10;7.70;99.20
8172;DHT22;4127;47.908;10.850;2023-12-29T04:18:37;7.60;99.00
8172;DHT22;4127;47.908;10.850;2023-12-29T04:21:04;7.60;99.10
8172;DHT22;4127;47.908;10.850;2023-12-29T04:23:31;7.60;99.10
8172;DHT22;4127;47.908;10.850;2023-12-29T04:25:58;7.60;99.20
8172;DHT22;4127;47.908;10.850;2023-12-29T04:28:25;7.60;99.20
8172;DHT22;4127;47.908;10.850;2023-12-29T04:30:52;7.60;99.30
8172;DHT22;4127;47.908;10.850;2023-12-29T04:33:19;7.60;99.30
8172;DHT22;4127;47.908;10.850;2023-12-29T04:35:46;7.50;99.40
8172;DHT22;4127;47.908;10.850;2023-12-29T04:38:13;7.50;99.50
8172;DHT22;4127;47.908;10.850;2023-12-29T04:40:40;7.50;99.60
8172;DHT22;4127;47.908;10.850;2023-12-29T04:43:07;7.40;99.70
8172;DHT22;4127;47.908;10.850;2023-12-29T04:45:34;7.40;99.70
8172;DHT22;4127;47.908;10.850;2023-12-29T04:48:01;7.40;99.80
8172;DHT22;4127;47.908;10.850;2023-12-29T04:50:28;7.50;99.70
8172;DHT22;4127;47.908;10.850;2023-12-29T04:52:55;7.50;99.80
8172;DHT22;4127;47.908;10.850;2023-12-29T04:55:22;7.50;99.60
8172;DHT22;4127;47.908;10.850;2023-12-29T04:57:49;7.60;99.80
8172;DHT22;4127;47.908;10.850;2023-12-29T05:00:16;7.60;99.60
8172;DHT22;4127;47.908;10.850;2023-12-29T05:02:43;7.70;99.50
8172;DHT22;4127;47.908;10.850;2023-12-29T05:05:10;7.80;99.50
8172;DHT22;4127;47.908;10.850;2023-12-29T05:07:37;7.90;99.30
8172;DHT22;4127;47.908;10.850;2023-12-29T05:10:04;7.90;99.10
8172;DHT22;4127;47.908;10.850;2023-12-29T05:12:31;8.00;99.10
8172;DHT22;4127;47.908;10.850;2023-12-29T05:14:58;8.00;99.20
8172;DHT22;4127;47.908;10.850;2023-12-29T05:17:25;7.90;99.20
8172;DHT22;4127;47.908;10.850;2023-12-29T05:19:52;7.80;99.30
8172;DHT22;4127;47.908;10.850;2023-12-29T05:22:19;7.80;99.30
8172;DHT22;4127;47.908;10.850;2023-12-29T05:24:46;7.80;99.20
8172;DHT22;4127;47.908;10.850;2023-12-29T05:27:13;7.70;99.20
8172;DHT22;4127;47.908;10.850;2023-12-29T05:29:41;7.70;99.00
8172;DHT22;4127;47.908;10.850;2023-12-29T05:32:08;7.70;99.10
8172;DHT22;4127;47.908;10.850;2023-12-29T05:34:35;7.70;99.10
8172;DHT22;4127;47.908;10.850;2023-12-29T05:37:02;7.70;99.00
8172;DHT22;4127;47.908;10.850;2023-12-29T05:39:29;7.70;99.30
8172;DHT22;4127;47.908;10.850;2023-12-29T05:41:56;7.80;99.40
8172;DHT22;4127;47.908;10.850;2023-12-29T05:44:23;7.80;99.50
8172;DHT22;4127;47.908;10.850;2023-12-29T05:46:50;7.80;99.60
8172;DHT22;4127;47.908;10.850;2023-12-29T05:49:17;7.90;99.90
8172;DHT22;4127;47.908;10.850;2023-12-29T05:51:45;7.90;99.90
8172;DHT22;4127;47.908;10.850;2023-12-29T05:54:12;7.90;99.90
8172;DHT22;4127;47.908;10.850;2023-12-29T05:56:38;7.90;99.90
8172;DHT22;4127;47.908;10.850;2023-12-29T05:59:05;8.00;99.90
8172;DHT22;4127;47.908;10.850;2023-12-29T06:01:32;8.00;99.90
8172;DHT22;4127;47.908;10.850;2023-12-29T06:03:59;8.00;99.90
8172;DHT22;4127;47.908;10.850;2023-12-29T06:06:26;8.10;99.90
8172;DHT22;4127;47.908;10.850;2023-12-29T06:08:54;8.10;99.90
8172;DHT22;4127;47.908;10.850;2023-12-29T06:11:21;8.10;99.90
8172;DHT22;4127;47.908;10.850;2023-12-29T06:13:48;8.10;99.90
8172;DHT22;4127;47.908;10.850;2023-12-29T06:16:21;8.20;99.90
8172;DHT22;4127;47.908;10.850;2023-12-29T06:18:48;8.20;99.90
8172;DHT22;4127;47.908;10.850;2023-12-29T06:21:16;8.20;99.90
8172;DHT22;4127;47.908;10.850;2023-12-29T06:23:43;8.20;99.90
8172;DHT22;4127;47.908;10.850;2023-12-29T06:26:17;8.20;99.90
8172;DHT22;4127;47.908;10.850;2023-12-29T06:28:45;8.30;99.90
8172;DHT22;4127;47.908;10.850;2023-12-29T06:31:12;8.20;99.90
8172;DHT22;4127;47.908;10.850;2023-12-29T06:33:43;8.20;99.90
8172;DHT22;4127;47.908;10.850;2023-12-29T06:36:10;8.20;99.90
8172;DHT22;4127;47.908;10.850;2023-12-29T06:38:37;8.10;99.90
8172;DHT22;4127;47.908;10.850;2023-12-29T06:41:04;8.10;99.90
8172;DHT22;4127;47.908;10.850;2023-12-29T06:43:31;8.10;99.90
8172;DHT22;4127;47.908;10.850;2023-12-29T06:45:58;8.10;99.90
8172;DHT22;4127;47.908;10.850;2023-12-29T06:48:25;8.10;99.90
8172;DHT22;4127;47.908;10.850;2023-12-29T06:50:52;8.10;99.90
8172;DHT22;4127;47.908;10.850;2023-12-29T06:53:19;8.10;99.90
8172;DHT22;4127;47.908;10.850;2023-12-29T06:55:46;8.20;99.90
8172;DHT22;4127;47.908;10.850;2023-12-29T06:58:14;8.20;99.90
8172;DHT22;4127;47.908;10.850;2023-12-29T07:00:40;8.20;99.90
8172;DHT22;4127;47.908;10.850;2023-12-29T07:03:13;8.20;99.90
8172;DHT22;4127;47.908;10.850;2023-12-29T07:05:41;8.20;99.90
8172;DHT22;4127;47.908;10.850;2023-12-29T07:08:08;8.10;99.90
8172;DHT22;4127;47.908;10.850;2023-12-29T07:10:35;8.10;99.90
8172;DHT22;4127;47.908;10.850;2023-12-29T07:13:02;8.10;99.90
8172;DHT22;4127;47.908;10.850;2023-12-29T07:15:29;8.10;99.90
8172;DHT22;4127;47.908;10.850;2023-12-29T07:17:56;8.10;99.90
8172;DHT22;4127;47.908;10.850;2023-12-29T07:20:23;8.20;99.90
8172;DHT22;4127;47.908;10.850;2023-12-29T07:22:51;8.20;99.90
8172;DHT22;4127;47.908;10.850;2023-12-29T07:25:18;8.20;99.90
8172;DHT22;4127;47.908;10.850;2023-12-29T07:27:45;8.30;99.90
8172;DHT22;4127;47.908;10.850;2023-12-29T07:30:13;8.30;99.90
8172;DHT22;4127;47.908;10.850;2023-12-29T07:32:40;8.30;99.90
8172;DHT22;4127;47.908;10.850;2023-12-29T07:35:07;8.30;99.90
8172;DHT22;4127;47.908;10.850;2023-12-29T07:37:34;8.30;99.90
8172;DHT22;4127;47.908;10.850;2023-12-29T07:40:01;8.30;99.90
8172;DHT22;4127;47.908;10.850;2023-12-29T07:42:31;8.30;99.90
8172;DHT22;4127;47.908;10.850;2023-12-29T07:44:59;8.30;99.90
8172;DHT22;4127;47.908;10.850;2023-12-29T07:47:26;8.30;99.90
8172;DHT22;4127;47.908;10.850;2023-12-29T07:49:53;8.30;99.90
8172;DHT22;4127;47.908;10.850;2023-12-29T07:52:19;8.20;99.90
8172;DHT22;4127;47.908;10.850;2023-12-29T07:54:46;8.20;99.90
8172;DHT22;4127;47.908;10.850;2023-12-29T07:57:13;8.30;99.90
8172;DHT22;4127;47.908;10.850;2023-12-29T07:59:40;8.30;99.90
8172;DHT22;4127;47.908;10.850;2023-12-29T08:02:07;8.30;99.90
8172;DHT22;4127;47.908;10.850;2023-12-29T08:04:35;8.30;99.90
8172;DHT22;4127;47.908;10.850;2023-12-29T08:07:02;8.30;99.90
8172;DHT22;4127;47.908;10.850;2023-12-29T08:09:30;8.30;99.90
8172;DHT22;4127;47.908;10.850;2023-12-29T08:11:56;8.30;99.90
8172;DHT22;4127;47.908;10.850;2023-12-29T08:14:23;8.30;99.90
8172;DHT22;4127;47.908;10.850;2023-12-29T08:16:50;8.30;99.90
8172;DHT22;4127;47.908;10.850;2023-12-29T08:19:17;8.30;99.90
8172;DHT22;4127;47.908;10.850;2023-12-29T08:21:44;8.30;99.90
8172;DHT22;4127;47.908;10.850;2023-12-29T08:24:11;8.30;99.90
8172;DHT22;4127;47.908;10.850;2023-12-29T08:26:47;8.30;99.90
8172;DHT22;4127;47.908;10.850;2023-12-29T08:29:15;8.30;99.90
8172;DHT22;4127;47.908;10.850;2023-12-29T08:31:43;8.20;99.90
8172;DHT22;4127;47.908;10.850;2023-12-29T08:34:11;8.30;99.90
8172;DHT22;4127;47.908;10.850;2023-12-29T08:36:39;8.30;99.90
8172;DHT22;4127;47.908;10.850;2023-12-29T08:39:05;8.30;99.90
8172;DHT22;4127;47.908;10.850;2023-12-29T08:41:32;8.30;99.90
8172;DHT22;4127;47.908;10.850;2023-12-29T08:43:59;8.40;99.90
8172;DHT22;4127;47.908;10.850;2023-12-29T08:46:26;8.40;99.90
8172;DHT22;4127;47.908;10.850;2023-12-29T08:48:53;8.50;99.90
8172;DHT22;4127;47.908;10.850;2023-12-29T08:51:20;8.50;99.90
8172;DHT22;4127;47.908;10.850;2023-12-29T08:53:47;8.50;99.90
8172;DHT22;4127;47.908;10.850;2023-12-29T08:56:14;8.50;99.90
8172;DHT22;4127;47.908;10.850;2023-12-29T08:58:41;8.50;99.90
8172;DHT22;4127;47.908;10.850;2023-12-29T09:01:08;8.60;99.90
8172;DHT22;4127;47.908;10.850;2023-12-29T09:03:39;8.60;99.90
8172;DHT22;4127;47.908;10.850;2023-12-29T09:06:06;8.60;99.90
8172;DHT22;4127;47.908;10.850;2023-12-29T09:08:35;8.60;99.90
8172;DHT22;4127;47.908;10.850;2023-12-29T09:11:02;8.70;99.90
8172;DHT22;4127;47.908;10.850;2023-12-29T09:13:29;8.70;99.90
8172;DHT22;4127;47.908;10.850;2023-12-29T09:15:56;8.80;99.90
8172;DHT22;4127;47.908;10.850;2023-12-29T09:18:24;8.80;99.90
8172;DHT22;4127;47.908;10.850;2023-12-29T09:20:51;8.80;99.90
8172;DHT22;4127;47.908;10.850;2023-12-29T09:23:18;8.80;99.90
8172;DHT22;4127;47.908;10.850;2023-12-29T09:25:45;8.80;99.90
8172;DHT22;4127;47.908;10.850;2023-12-29T09:28:12;8.80;99.90
8172;DHT22;4127;47.908;10.850;2023-12-29T09:30:40;8.80;99.90
8172;DHT22;4127;47.908;10.850;2023-12-29T09:33:07;8.90;99.90
8172;DHT22;4127;47.908;10.850;2023-12-29T09:35:34;8.90;99.90
8172;DHT22;4127;47.908;10.850;2023-12-29T09:38:04;8.90;99.90
8172;DHT22;4127;47.908;10.850;2023-12-29T09:40:31;8.90;99.90
8172;DHT22;4127;47.908;10.850;2023-12-29T09:43:01;8.90;99.90
8172;DHT22;4127;47.908;10.850;2023-12-29T09:45:30;8.90;99.90
8172;DHT22;4127;47.908;10.850;2023-12-29T09:48:01;8.90;99.90
8172;DHT22;4127;47.908;10.850;2023-12-29T09:50:30;8.80;99.90
8172;DHT22;4127;47.908;10.850;2023-12-29T09:52:59;8.80;99.90
8172;DHT22;4127;47.908;10.850;2023-12-29T09:55:27;8.90;99.90
8172;DHT22;4127;47.908;10.850;2023-12-29T09:57:55;8.90;99.90
8172;DHT22;4127;47.908;10.850;2023-12-29T10:00:22;8.80;99.90
8172;DHT22;4127;47.908;10.850;2023-12-29T10:02:51;8.80;99.90
8172;DHT22;4127;47.908;10.850;2023-12-29T10:05:21;8.80;99.90
8172;DHT22;4127;47.908;10.850;2023-12-29T10:07:49;8.80;99.90
8172;DHT22;4127;47.908;10.850;2023-12-29T10:10:17;8.90;99.90
8172;DHT22;4127;47.908;10.850;2023-12-29T10:12:47;8.90;99.90
8172;DHT22;4127;47.908;10.850;2023-12-29T10:18:14;8.90;99.90
8172;DHT22;4127;47.908;10.850;2023-12-29T10:23:36;9.00;99.90
8172;DHT22;4127;47.908;10.850;2023-12-29T10:26:05;9.00;99.90
8172;DHT22;4127;47.908;10.850;2023-12-29T10:28:33;9.10;99.90
8172;DHT22;4127;47.908;10.850;2023-12-29T10:31:01;9.10;99.90
8172;DHT22;4127;47.908;10.850;2023-12-29T10:33:28;9.20;99.90
8172;DHT22;4127;47.908;10.850;2023-12-29T10:36:00;9.20;99.90
8172;DHT22;4127;47.908;10.850;2023-12-29T10:38:31;9.30;99.90
8172;DHT22;4127;47.908;10.850;2023-12-29T10:41:11;9.30;99.90
8172;DHT22;4127;47.908;10.850;2023-12-29T10:43:42;9.40;99.90
8172;DHT22;4127;47.908;10.850;2023-12-29T10:46:10;9.40;99.90
8172;DHT22;4127;47.908;10.850;2023-12-29T10:48:38;9.40;99.90
8172;DHT22;4127;47.908;10.850;2023-12-29T10:51:06;9.50;99.90
8172;DHT22;4127;47.908;10.850;2023-12-29T10:53:34;9.50;99.90
8172;DHT22;4127;47.908;10.850;2023-12-29T10:56:19;9.50;99.90
8172;DHT22;4127;47.908;10.850;2023-12-29T10:59:00;9.60;99.90
8172;DHT22;4127;47.908;10.850;2023-12-29T11:01:34;9.60;99.90
8172;DHT22;4127;47.908;10.850;2023-12-29T11:04:05;9.70;99.90
8172;DHT22;4127;47.908;10.850;2023-12-29T11:06:44;9.70;99.90
8172;DHT22;4127;47.908;10.850;2023-12-29T11:09:21;9.70;99.90
8172;DHT22;4127;47.908;10.850;2023-12-29T11:11:55;9.70;99.90
8172;DHT22;4127;47.908;10.850;2023-12-29T11:14:23;9.70;99.90
8172;DHT22;4127;47.908;10.850;2023-12-29T11:16:52;9.80;99.90
8172;DHT22;4127;47.908;10.850;2023-12-29T11:19:21;9.70;99.90
8172;DHT22;4127;47.908;10.850;2023-12-29T11:21:54;9.80;99.90
8172;DHT22;4127;47.908;10.850;2023-12-29T11:24:22;9.90;99.90
8172;DHT22;4127;47.908;10.850;2023-12-29T11:27:01;9.90;99.90
8172;DHT22;4127;47.908;10.850;2023-12-29T11:29:30;9.90;99.90
8172;DHT22;4127;47.908;10.850;2023-12-29T11:31:58;9.90;99.90
8172;DHT22;4127;47.908;10.850;2023-12-29T11:34:35;9.90;99.90
8172;DHT22;4127;47.908;10.850;2023-12-29T11:40:23;9.90;99.90
8172;DHT22;4127;47.908;10.850;2023-12-29T11:42:53;9.90;99.90
8172;DHT22;4127;47.908;10.850;2023-12-29T11:45:31;10.00;99.90
8172;DHT22;4127;47.908;10.850;2023-12-29T11:48:03;10.10;99.90
8172;DHT22;4127;47.908;10.850;2023-12-29T11:50:37;10.10;99.90
8172;DHT22;4127;47.908;10.850;2023-12-29T11:53:07;10.20;99.90
8172;DHT22;4127;47.908;10.850;2023-12-29T11:55:37;10.20;99.90
8172;DHT22;4127;47.908;10.850;2023-12-29T11:58:23;10.20;99.90
8172;DHT22;4127;47.908;10.850;2023-12-29T12:00:50;10.20;99.90
8172;DHT22;4127;47.908;10.850;2023-12-29T12:03:27;10.30;99.90
8172;DHT22;4127;47.908;10.850;2023-12-29T12:05:56;10.30;99.90
8172;DHT22;4127;47.908;10.850;2023-12-29T12:10:57;10.40;99.90
8172;DHT22;4127;47.908;10.850;2023-12-29T12:13:46;10.40;99.90
8172;DHT22;4127;47.908;10.850;2023-12-29T12:19:12;10.40;99.90
8172;DHT22;4127;47.908;10.850;2023-12-29T12:21:40;10.40;99.90
8172;DHT22;4127;47.908;10.850;2023-12-29T12:24:08;10.40;99.90
8172;DHT22;4127;47.908;10.850;2023-12-29T12:26:35;10.30;99.90
8172;DHT22;4127;47.908;10.850;2023-12-29T12:29:03;10.30;99.90
8172;DHT22;4127;47.908;10.850;2023-12-29T12:31:31;10.40;99.90
8172;DHT22;4127;47.908;10.850;2023-12-29T12:33:58;10.40;99.90
8172;DHT22;4127;47.908;10.850;2023-12-29T12:36:27;10.50;99.90
8172;DHT22;4127;47.908;10.850;2023-12-29T12:38:55;10.50;99.90
8172;DHT22;4127;47.908;10.850;2023-12-29T12:41:23;10.50;99.90
8172;DHT22;4127;47.908;10.850;2023-12-29T12:44:00;10.50;99.90
8172;DHT22;4127;47.908;10.850;2023-12-29T12:46:33;10.50;99.90
8172;DHT22;4127;47.908;10.850;2023-12-29T12:49:02;10.50;99.90
8172;DHT22;4127;47.908;10.850;2023-12-29T12:51:32;10.50;99.90
8172;DHT22;4127;47.908;10.850;2023-12-29T12:54:00;10.50;99.90
8172;DHT22;4127;47.908;10.850;2023-12-29T12:56:27;10.50;99.90
8172;DHT22;4127;47.908;10.850;2023-12-29T12:58:56;10.40;99.90
8172;DHT22;4127;47.908;10.850;2023-12-29T13:01:25;10.50;99.90
8172;DHT22;4127;47.908;10.850;2023-12-29T13:03:53;10.50;99.90
8172;DHT22;4127;47.908;10.850;2023-12-29T13:06:22;10.50;99.90
8172;DHT22;4127;47.908;10.850;2023-12-29T13:08:50;10.50;99.90
8172;DHT22;4127;47.908;10.850;2023-12-29T13:11:21;10.40;99.90
8172;DHT22;4127;47.908;10.850;2023-12-29T13:13:51;10.40;99.90
8172;DHT22;4127;47.908;10.850;2023-12-29T13:21:52;10.40;99.90
8172;DHT22;4127;47.908;10.850;2023-12-29T13:24:24;10.40;99.90
8172;DHT22;4127;47.908;10.850;2023-12-29T13:27:07;10.40;99.90
8172;DHT22;4127;47.908;10.850;2023-12-29T13:29:35;10.40;99.90
8172;DHT22;4127;47.908;10.850;2023-12-29T13:32:15;10.40;99.90
8172;DHT22;4127;47.908;10.850;2023-12-29T13:35:05;10.40;99.90
8172;DHT22;4127;47.908;10.850;2023-12-29T13:37:54;10.50;99.90
8172;DHT22;4127;47.908;10.850;2023-12-29T13:40:28;10.40;99.90
8172;DHT22;4127;47.908;10.850;2023-12-29T13:43:02;10.40;99.90
8172;DHT22;4127;47.908;10.850;2023-12-29T13:45:34;10.40;99.90
8172;DHT22;4127;47.908;10.850;2023-12-29T13:48:02;10.40;99.90
8172;DHT22;4127;47.908;10.850;2023-12-29T13:50:30;10.30;99.90
8172;DHT22;4127;47.908;10.850;2023-12-29T13:52:57;10.30;99.90
8172;DHT22;4127;47.908;10.850;2023-12-29T13:55:24;10.30;99.90
8172;DHT22;4127;47.908;10.850;2023-12-29T13:57:54;10.40;99.90
8172;DHT22;4127;47.908;10.850;2023-12-29T14:00:25;10.40;99.90
8172;DHT22;4127;47.908;10.850;2023-12-29T14:08:00;10.30;99.90
8172;DHT22;4127;47.908;10.850;2023-12-29T14:10:32;10.30;99.90
8172;DHT22;4127;47.908;10.850;2023-12-29T14:13:16;10.30;99.90
8172;DHT22;4127;47.908;10.850;2023-12-29T14:15:44;10.30;99.90
8172;DHT22;4127;47.908;10.850;2023-12-29T14:20:48;10.30;99.90
8172;DHT22;4127;47.908;10.850;2023-12-29T14:23:18;10.20;99.90
8172;DHT22;4127;47.908;10.850;2023-12-29T14:25:45;10.20;99.90
8172;DHT22;4127;47.908;10.850;2023-12-29T14:28:20;10.20;99.90
8172;DHT22;4127;47.908;10.850;2023-12-29T14:30:49;10.10;99.90
8172;DHT22;4127;47.908;10.850;2023-12-29T14:33:17;10.10;99.90
8172;DHT22;4127;47.908;10.850;2023-12-29T14:35:44;10.10;99.90
8172;DHT22;4127;47.908;10.850;2023-12-29T14:38:11;10.10;99.90
8172;DHT22;4127;47.908;10.850;2023-12-29T14:40:45;10.10;99.90
8172;DHT22;4127;47.908;10.850;2023-12-29T14:43:12;10.10;99.90
8172;DHT22;4127;47.908;10.850;2023-12-29T14:45:40;10.10;99.90
8172;DHT22;4127;47.908;10.850;2023-12-29T14:48:07;10.00;99.90
8172;DHT22;4127;47.908;10.850;2023-12-29T14:50:34;10.00;99.90
8172;DHT22;4127;47.908;10.850;2023-12-29T14:53:01;10.00;99.90
8172;DHT22;4127;47.908;10.850;2023-12-29T14:55:28;9.90;99.90
8172;DHT22;4127;47.908;10.850;2023-12-29T14:57:55;10.00;99.90
8172;DHT22;4127;47.908;10.850;2023-12-29T15:00:21;9.90;99.90
8172;DHT22;4127;47.908;10.850;2023-12-29T15:02:48;9.90;99.90
8172;DHT22;4127;47.908;10.850;2023-12-29T15:05:15;9.90;99.90
8172;DHT22;4127;47.908;10.850;2023-12-29T15:07:44;9.80;99.90
8172;DHT22;4127;47.908;10.850;2023-12-29T15:10:11;9.80;99.90
8172;DHT22;4127;47.908;10.850;2023-12-29T15:12:38;9.80;99.90
8172;DHT22;4127;47.908;10.850;2023-12-29T15:15:08;9.80;99.90
8172;DHT22;4127;47.908;10.850;2023-12-29T15:17:37;9.80;99.90
8172;DHT22;4127;47.908;10.850;2023-12-29T15:20:05;9.80;99.90
8172;DHT22;4127;47.908;10.850;2023-12-29T15:22:33;9.70;99.90
8172;DHT22;4127;47.908;10.850;2023-12-29T15:25:00;9.70;99.90
8172;DHT22;4127;47.908;10.850;2023-12-29T15:27:27;9.70;99.90
8172;DHT22;4127;47.908;10.850;2023-12-29T15:29:56;9.70;99.90
8172;DHT22;4127;47.908;10.850;2023-12-29T15:32:23;9.60;99.90
8172;DHT22;4127;47.908;10.850;2023-12-29T15:34:50;9.60;99.90
8172;DHT22;4127;47.908;10.850;2023-12-29T15:37:17;9.60;99.90
8172;DHT22;4127;47.908;10.850;2023-12-29T15:39:46;9.60;99.90
8172;DHT22;4127;47.908;10.850;2023-12-29T15:42:13;9.60;99.90
8172;DHT22;4127;47.908;10.850;2023-12-29T15:44:40;9.60;99.90
8172;DHT22;4127;47.908;10.850;2023-12-29T15:47:06;9.60;99.90
8172;DHT22;4127;47.908;10.850;2023-12-29T15:49:36;9.60;99.90
8172;DHT22;4127;47.908;10.850;2023-12-29T15:52:03;9.60;99.90
8172;DHT22;4127;47.908;10.850;2023-12-29T15:54:30;9.60;99.90
8172;DHT22;4127;47.908;10.850;2023-12-29T15:56:59;9.60;99.90
8172;DHT22;4127;47.908;10.850;2023-12-29T15:59:26;9.50;99.90
8172;DHT22;4127;47.908;10.850;2023-12-29T16:01:52;9.50;99.90
8172;DHT22;4127;47.908;10.850;2023-12-29T16:04:19;9.50;99.90
8172;DHT22;4127;47.908;10.850;2023-12-29T16:06:46;9.50;99.90
8172;DHT22;4127;47.908;10.850;2023-12-29T16:09:14;9.40;99.90
8172;DHT22;4127;47.908;10.850;2023-12-29T16:11:41;9.40;99.90
8172;DHT22;4127;47.908;10.850;2023-12-29T16:14:08;9.40;99.90
8172;DHT22;4127;47.908;10.850;2023-12-29T16:16:38;9.40;99.90
8172;DHT22;4127;47.908;10.850;2023-12-29T16:19:05;9.30;99.90
8172;DHT22;4127;47.908;10.850;2023-12-29T16:21:39;9.30;99.90
8172;DHT22;4127;47.908;10.850;2023-12-29T16:24:09;9.30;99.90
8172;DHT22;4127;47.908;10.850;2023-12-29T16:26:36;9.30;99.90
8172;DHT22;4127;47.908;10.850;2023-12-29T16:29:13;9.30;99.90
8172;DHT22;4127;47.908;10.850;2023-12-29T16:31:41;9.30;99.90
8172;DHT22;4127;47.908;10.850;2023-12-29T16:34:08;9.30;99.90
8172;DHT22;4127;47.908;10.850;2023-12-29T16:36:35;9.20;99.90
8172;DHT22;4127;47.908;10.850;2023-12-29T16:39:04;9.20;99.90